sensor_id;sensor_type;location;lat;lon;timestamp;P1;durP1;ratioP1;P2;durP2;ratioP2
7737;SDS011;29398;45.328;5.558;2022-11-25T00:00:46;13.77;;;11.27;;
7737;SDS011;29398;45.328;5.558;2022-11-25T00:01:50;15.65;;;11.15;;
7737;SDS011;29398;45.328;5.558;2022-11-25T00:02:51;15.52;;;10.95;;
7737;SDS011;29398;45.328;5.558;2022-11-25T00:03:53;14.55;;;10.27;;
7737;SDS011;29398;45.328;5.558;2022-11-25T00:04:57;13.73;;;11.13;;
7737;SDS011;29398;45.328;5.558;2022-11-25T00:06:06;14.82;;;10.45;;
7737;SDS011;29398;45.328;5.558;2022-11-25T00:07:11;14.35;;;10.68;;
7737;SDS011;29398;45.328;5.558;2022-11-25T00:08:13;15.75;;;11.60;;
7737;SDS011;29398;45.328;5.558;2022-11-25T00:09:14;16.83;;;12.05;;
7737;SDS011;29398;45.328;5.558;2022-11-25T00:10:16;17.17;;;11.60;;
7737;SDS011;29398;45.328;5.558;2022-11-25T00:11:17;15.88;;;11.45;;
7737;SDS011;29398;45.328;5.558;2022-11-25T00:12:19;15.55;;;11.05;;
7737;SDS011;29398;45.328;5.558;2022-11-25T00:13:20;16.23;;;11.55;;
7737;SDS011;29398;45.328;5.558;2022-11-25T00:14:22;16.23;;;11.13;;
7737;SDS011;29398;45.328;5.558;2022-11-25T00:15:23;13.38;;;10.18;;
7737;SDS011;29398;45.328;5.558;2022-11-25T00:16:25;14.20;;;10.23;;
7737;SDS011;29398;45.328;5.558;2022-11-25T00:17:27;14.68;;;10.40;;
7737;SDS011;29398;45.328;5.558;2022-11-25T00:18:29;12.38;;;9.57;;
7737;SDS011;29398;45.328;5.558;2022-11-25T00:19:30;13.50;;;10.45;;
7737;SDS011;29398;45.328;5.558;2022-11-25T00:20:32;14.90;;;10.88;;
7737;SDS011;29398;45.328;5.558;2022-11-25T00:21:36;14.07;;;11.00;;
7737;SDS011;29398;45.328;5.558;2022-11-25T00:22:38;12.82;;;10.43;;
7737;SDS011;29398;45.328;5.558;2022-11-25T00:23:39;16.17;;;10.05;;
7737;SDS011;29398;45.328;5.558;2022-11-25T00:24:42;13.30;;;9.65;;
7737;SDS011;29398;45.328;5.558;2022-11-25T00:25:43;14.50;;;9.90;;
7737;SDS011;29398;45.328;5.558;2022-11-25T00:26:45;11.60;;;9.20;;
7737;SDS011;29398;45.328;5.558;2022-11-25T00:27:46;12.73;;;9.65;;
7737;SDS011;29398;45.328;5.558;2022-11-25T00:28:48;11.90;;;9.25;;
7737;SDS011;29398;45.328;5.558;2022-11-25T00:29:50;12.85;;;10.07;;
7737;SDS011;29398;45.328;5.558;2022-11-25T00:30:52;16.70;;;9.23;;
7737;SDS011;29398;45.328;5.558;2022-11-25T00:31:53;15.40;;;9.95;;
7737;SDS011;29398;45.328;5.558;2022-11-25T00:32:56;15.25;;;10.02;;
7737;SDS011;29398;45.328;5.558;2022-11-25T00:34:00;11.93;;;9.45;;
7737;SDS011;29398;45.328;5.558;2022-11-25T00:35:02;13.85;;;10.05;;
7737;SDS011;29398;45.328;5.558;2022-11-25T00:36:05;16.33;;;10.23;;
7737;SDS011;29398;45.328;5.558;2022-11-25T00:37:12;12.45;;;9.40;;
7737;SDS011;29398;45.328;5.558;2022-11-25T00:38:15;12.10;;;9.48;;
7737;SDS011;29398;45.328;5.558;2022-11-25T00:39:16;15.55;;;9.93;;
7737;SDS011;29398;45.328;5.558;2022-11-25T00:40:19;14.73;;;9.98;;
7737;SDS011;29398;45.328;5.558;2022-11-25T00:41:20;15.05;;;10.73;;
7737;SDS011;29398;45.328;5.558;2022-11-25T00:42:40;13.88;;;10.07;;
7737;SDS011;29398;45.328;5.558;2022-11-25T00:43:59;13.10;;;10.38;;
7737;SDS011;29398;45.328;5.558;2022-11-25T00:45:19;17.85;;;11.02;;
7737;SDS011;29398;45.328;5.558;2022-11-25T00:46:21;13.07;;;9.82;;
7737;SDS011;29398;45.328;5.558;2022-11-25T00:47:22;11.50;;;9.30;;
7737;SDS011;29398;45.328;5.558;2022-11-25T00:48:25;15.88;;;10.27;;
7737;SDS011;29398;45.328;5.558;2022-11-25T00:49:26;13.82;;;9.30;;
7737;SDS011;29398;45.328;5.558;2022-11-25T00:50:28;12.38;;;9.35;;
7737;SDS011;29398;45.328;5.558;2022-11-25T00:51:29;11.85;;;8.98;;
7737;SDS011;29398;45.328;5.558;2022-11-25T00:52:31;13.32;;;9.90;;
7737;SDS011;29398;45.328;5.558;2022-11-25T00:53:36;15.40;;;9.57;;
7737;SDS011;29398;45.328;5.558;2022-11-25T00:54:37;12.45;;;8.52;;
7737;SDS011;29398;45.328;5.558;2022-11-25T00:55:39;12.32;;;9.52;;
7737;SDS011;29398;45.328;5.558;2022-11-25T00:56:55;10.55;;;8.85;;
7737;SDS011;29398;45.328;5.558;2022-11-25T00:57:57;15.43;;;9.75;;
7737;SDS011;29398;45.328;5.558;2022-11-25T00:58:59;11.93;;;9.07;;
7737;SDS011;29398;45.328;5.558;2022-11-25T01:00:01;13.82;;;9.20;;
7737;SDS011;29398;45.328;5.558;2022-11-25T01:01:03;14.18;;;9.73;;
7737;SDS011;29398;45.328;5.558;2022-11-25T01:02:05;12.98;;;9.48;;
7737;SDS011;29398;45.328;5.558;2022-11-25T01:03:09;13.27;;;9.30;;
7737;SDS011;29398;45.328;5.558;2022-11-25T01:04:12;13.60;;;10.25;;
7737;SDS011;29398;45.328;5.558;2022-11-25T01:05:14;11.10;;;8.70;;
7737;SDS011;29398;45.328;5.558;2022-11-25T01:06:15;14.85;;;10.50;;
7737;SDS011;29398;45.328;5.558;2022-11-25T01:07:17;13.77;;;9.52;;
7737;SDS011;29398;45.328;5.558;2022-11-25T01:08:20;14.43;;;10.35;;
7737;SDS011;29398;45.328;5.558;2022-11-25T01:09:21;13.00;;;10.52;;
7737;SDS011;29398;45.328;5.558;2022-11-25T01:10:23;16.52;;;12.18;;
7737;SDS011;29398;45.328;5.558;2022-11-25T01:11:24;14.35;;;12.02;;
7737;SDS011;29398;45.328;5.558;2022-11-25T01:12:27;14.73;;;11.77;;
7737;SDS011;29398;45.328;5.558;2022-11-25T01:13:28;16.50;;;12.52;;
7737;SDS011;29398;45.328;5.558;2022-11-25T01:14:30;18.17;;;12.73;;
7737;SDS011;29398;45.328;5.558;2022-11-25T01:15:34;15.38;;;12.82;;
7737;SDS011;29398;45.328;5.558;2022-11-25T01:16:37;20.63;;;13.38;;
7737;SDS011;29398;45.328;5.558;2022-11-25T01:17:41;16.38;;;13.23;;
7737;SDS011;29398;45.328;5.558;2022-11-25T01:18:42;17.45;;;13.15;;
7737;SDS011;29398;45.328;5.558;2022-11-25T01:19:46;17.02;;;12.32;;
7737;SDS011;29398;45.328;5.558;2022-11-25T01:20:48;16.67;;;12.45;;
7737;SDS011;29398;45.328;5.558;2022-11-25T01:21:49;16.20;;;12.88;;
7737;SDS011;29398;45.328;5.558;2022-11-25T01:22:51;14.05;;;12.00;;
7737;SDS011;29398;45.328;5.558;2022-11-25T01:23:52;14.80;;;12.80;;
7737;SDS011;29398;45.328;5.558;2022-11-25T01:24:55;14.63;;;12.88;;
7737;SDS011;29398;45.328;5.558;2022-11-25T01:25:56;18.05;;;13.75;;
7737;SDS011;29398;45.328;5.558;2022-11-25T01:27:01;16.75;;;13.25;;
7737;SDS011;29398;45.328;5.558;2022-11-25T01:28:04;17.30;;;13.02;;
7737;SDS011;29398;45.328;5.558;2022-11-25T01:29:10;18.33;;;13.18;;
7737;SDS011;29398;45.328;5.558;2022-11-25T01:30:13;18.30;;;13.80;;
7737;SDS011;29398;45.328;5.558;2022-11-25T01:31:16;15.70;;;13.02;;
7737;SDS011;29398;45.328;5.558;2022-11-25T01:32:18;20.08;;;13.60;;
7737;SDS011;29398;45.328;5.558;2022-11-25T01:33:20;16.73;;;13.73;;
7737;SDS011;29398;45.328;5.558;2022-11-25T01:34:23;16.92;;;13.77;;
7737;SDS011;29398;45.328;5.558;2022-11-25T01:35:27;17.60;;;13.68;;
7737;SDS011;29398;45.328;5.558;2022-11-25T01:36:29;18.02;;;13.98;;
7737;SDS011;29398;45.328;5.558;2022-11-25T01:37:31;19.17;;;13.77;;
7737;SDS011;29398;45.328;5.558;2022-11-25T01:38:32;20.83;;;13.32;;
7737;SDS011;29398;45.328;5.558;2022-11-25T01:39:34;16.90;;;13.55;;
7737;SDS011;29398;45.328;5.558;2022-11-25T01:40:35;18.55;;;14.38;;
7737;SDS011;29398;45.328;5.558;2022-11-25T01:41:37;18.60;;;13.90;;
7737;SDS011;29398;45.328;5.558;2022-11-25T01:42:41;17.25;;;13.02;;
7737;SDS011;29398;45.328;5.558;2022-11-25T01:46:40;19.88;;;14.38;;
7737;SDS011;29398;45.328;5.558;2022-11-25T01:47:45;19.80;;;13.85;;
7737;SDS011;29398;45.328;5.558;2022-11-25T01:48:47;16.35;;;13.52;;
7737;SDS011;29398;45.328;5.558;2022-11-25T01:49:54;18.67;;;13.50;;
7737;SDS011;29398;45.328;5.558;2022-11-25T01:51:02;17.60;;;13.32;;
7737;SDS011;29398;45.328;5.558;2022-11-25T01:52:06;18.33;;;13.63;;
7737;SDS011;29398;45.328;5.558;2022-11-25T01:53:15;16.25;;;12.48;;
7737;SDS011;29398;45.328;5.558;2022-11-25T01:54:19;17.55;;;12.52;;
7737;SDS011;29398;45.328;5.558;2022-11-25T01:55:24;15.30;;;11.98;;
7737;SDS011;29398;45.328;5.558;2022-11-25T01:56:29;16.17;;;11.60;;
7737;SDS011;29398;45.328;5.558;2022-11-25T01:57:36;13.88;;;11.20;;
7737;SDS011;29398;45.328;5.558;2022-11-25T01:58:41;14.02;;;11.18;;
7737;SDS011;29398;45.328;5.558;2022-11-25T01:59:45;15.35;;;10.95;;
7737;SDS011;29398;45.328;5.558;2022-11-25T02:00:51;16.70;;;10.85;;
7737;SDS011;29398;45.328;5.558;2022-11-25T02:01:52;16.40;;;10.88;;
7737;SDS011;29398;45.328;5.558;2022-11-25T02:02:55;13.45;;;10.55;;
7737;SDS011;29398;45.328;5.558;2022-11-25T02:04:00;13.00;;;10.32;;
7737;SDS011;29398;45.328;5.558;2022-11-25T02:05:03;16.45;;;10.40;;
7737;SDS011;29398;45.328;5.558;2022-11-25T02:06:10;15.10;;;10.50;;
7737;SDS011;29398;45.328;5.558;2022-11-25T02:07:18;14.50;;;10.73;;
7737;SDS011;29398;45.328;5.558;2022-11-25T02:08:25;15.15;;;11.23;;
7737;SDS011;29398;45.328;5.558;2022-11-25T02:09:28;14.20;;;10.65;;
7737;SDS011;29398;45.328;5.558;2022-11-25T02:10:31;14.52;;;11.13;;
7737;SDS011;29398;45.328;5.558;2022-11-25T02:11:37;14.32;;;10.60;;
7737;SDS011;29398;45.328;5.558;2022-11-25T02:12:42;13.43;;;10.18;;
7737;SDS011;29398;45.328;5.558;2022-11-25T02:13:46;14.50;;;9.63;;
7737;SDS011;29398;45.328;5.558;2022-11-25T02:14:50;14.63;;;9.80;;
7737;SDS011;29398;45.328;5.558;2022-11-25T02:15:53;13.15;;;9.27;;
7737;SDS011;29398;45.328;5.558;2022-11-25T02:16:58;14.50;;;9.18;;
7737;SDS011;29398;45.328;5.558;2022-11-25T02:18:00;12.60;;;8.90;;
7737;SDS011;29398;45.328;5.558;2022-11-25T02:19:02;11.50;;;8.38;;
7737;SDS011;29398;45.328;5.558;2022-11-25T02:20:05;11.57;;;8.73;;
7737;SDS011;29398;45.328;5.558;2022-11-25T02:21:10;10.90;;;8.23;;
7737;SDS011;29398;45.328;5.558;2022-11-25T02:22:18;11.27;;;7.93;;
7737;SDS011;29398;45.328;5.558;2022-11-25T02:23:28;15.43;;;9.20;;
7737;SDS011;29398;45.328;5.558;2022-11-25T02:24:38;10.88;;;8.32;;
7737;SDS011;29398;45.328;5.558;2022-11-25T02:25:47;9.52;;;8.05;;
7737;SDS011;29398;45.328;5.558;2022-11-25T02:26:51;13.40;;;8.77;;
7737;SDS011;29398;45.328;5.558;2022-11-25T02:27:54;10.70;;;9.00;;
7737;SDS011;29398;45.328;5.558;2022-11-25T02:28:59;12.90;;;8.75;;
7737;SDS011;29398;45.328;5.558;2022-11-25T02:30:00;13.77;;;9.18;;
7737;SDS011;29398;45.328;5.558;2022-11-25T02:31:02;13.77;;;8.88;;
7737;SDS011;29398;45.328;5.558;2022-11-25T02:32:07;12.38;;;8.40;;
7737;SDS011;29398;45.328;5.558;2022-11-25T02:33:08;11.57;;;9.20;;
7737;SDS011;29398;45.328;5.558;2022-11-25T02:34:11;10.07;;;8.20;;
7737;SDS011;29398;45.328;5.558;2022-11-25T02:35:26;10.82;;;8.68;;
7737;SDS011;29398;45.328;5.558;2022-11-25T02:36:31;11.30;;;8.32;;
7737;SDS011;29398;45.328;5.558;2022-11-25T02:37:33;12.73;;;8.55;;
7737;SDS011;29398;45.328;5.558;2022-11-25T02:38:36;11.45;;;8.40;;
7737;SDS011;29398;45.328;5.558;2022-11-25T02:39:42;13.02;;;8.32;;
7737;SDS011;29398;45.328;5.558;2022-11-25T02:40:48;10.98;;;7.75;;
7737;SDS011;29398;45.328;5.558;2022-11-25T02:41:53;12.20;;;8.02;;
7737;SDS011;29398;45.328;5.558;2022-11-25T02:42:59;10.10;;;7.75;;
7737;SDS011;29398;45.328;5.558;2022-11-25T02:44:00;10.43;;;7.68;;
7737;SDS011;29398;45.328;5.558;2022-11-25T02:45:03;11.65;;;8.52;;
7737;SDS011;29398;45.328;5.558;2022-11-25T02:46:13;13.77;;;8.15;;
7737;SDS011;29398;45.328;5.558;2022-11-25T02:47:18;11.10;;;7.90;;
7737;SDS011;29398;45.328;5.558;2022-11-25T02:48:20;10.43;;;7.15;;
7737;SDS011;29398;45.328;5.558;2022-11-25T02:49:22;10.95;;;7.40;;
7737;SDS011;29398;45.328;5.558;2022-11-25T02:50:25;12.00;;;7.20;;
7737;SDS011;29398;45.328;5.558;2022-11-25T02:51:27;9.05;;;7.00;;
7737;SDS011;29398;45.328;5.558;2022-11-25T02:52:32;10.02;;;7.10;;
7737;SDS011;29398;45.328;5.558;2022-11-25T02:53:33;12.20;;;7.68;;
7737;SDS011;29398;45.328;5.558;2022-11-25T02:54:35;11.65;;;7.75;;
7737;SDS011;29398;45.328;5.558;2022-11-25T02:55:37;11.93;;;7.55;;
7737;SDS011;29398;45.328;5.558;2022-11-25T02:56:41;12.05;;;7.90;;
7737;SDS011;29398;45.328;5.558;2022-11-25T02:57:42;10.68;;;7.60;;
7737;SDS011;29398;45.328;5.558;2022-11-25T02:58:44;12.80;;;8.23;;
7737;SDS011;29398;45.328;5.558;2022-11-25T02:59:45;10.70;;;7.63;;
7737;SDS011;29398;45.328;5.558;2022-11-25T03:00:48;12.48;;;8.38;;
7737;SDS011;29398;45.328;5.558;2022-11-25T03:01:49;12.30;;;8.13;;
7737;SDS011;29398;45.328;5.558;2022-11-25T03:02:51;11.48;;;8.13;;
7737;SDS011;29398;45.328;5.558;2022-11-25T03:03:54;11.88;;;8.50;;
7737;SDS011;29398;45.328;5.558;2022-11-25T03:04:56;14.85;;;9.90;;
7737;SDS011;29398;45.328;5.558;2022-11-25T03:05:57;11.48;;;9.43;;
7737;SDS011;29398;45.328;5.558;2022-11-25T03:06:59;12.27;;;8.93;;
7737;SDS011;29398;45.328;5.558;2022-11-25T03:08:02;15.55;;;10.20;;
7737;SDS011;29398;45.328;5.558;2022-11-25T03:09:04;15.98;;;11.38;;
7737;SDS011;29398;45.328;5.558;2022-11-25T03:10:11;16.15;;;11.07;;
7737;SDS011;29398;45.328;5.558;2022-11-25T03:11:13;15.18;;;11.55;;
7737;SDS011;29398;45.328;5.558;2022-11-25T03:12:16;13.85;;;11.07;;
7737;SDS011;29398;45.328;5.558;2022-11-25T03:13:26;14.77;;;11.68;;
7737;SDS011;29398;45.328;5.558;2022-11-25T03:14:27;14.90;;;11.63;;
7737;SDS011;29398;45.328;5.558;2022-11-25T03:15:29;15.95;;;11.85;;
7737;SDS011;29398;45.328;5.558;2022-11-25T03:16:31;16.73;;;12.45;;
7737;SDS011;29398;45.328;5.558;2022-11-25T03:17:33;13.68;;;10.75;;
7737;SDS011;29398;45.328;5.558;2022-11-25T03:18:34;16.08;;;11.70;;
7737;SDS011;29398;45.328;5.558;2022-11-25T03:19:36;14.10;;;11.82;;
7737;SDS011;29398;45.328;5.558;2022-11-25T03:20:37;16.75;;;12.00;;
7737;SDS011;29398;45.328;5.558;2022-11-25T03:21:39;15.65;;;12.02;;
7737;SDS011;29398;45.328;5.558;2022-11-25T03:22:41;15.25;;;12.05;;
7737;SDS011;29398;45.328;5.558;2022-11-25T03:23:43;14.05;;;11.20;;
7737;SDS011;29398;45.328;5.558;2022-11-25T03:24:44;15.07;;;12.02;;
7737;SDS011;29398;45.328;5.558;2022-11-25T03:25:46;16.55;;;12.75;;
7737;SDS011;29398;45.328;5.558;2022-11-25T03:26:47;15.40;;;11.73;;
7737;SDS011;29398;45.328;5.558;2022-11-25T03:27:51;16.13;;;11.98;;
7737;SDS011;29398;45.328;5.558;2022-11-25T03:28:53;15.05;;;11.98;;
7737;SDS011;29398;45.328;5.558;2022-11-25T03:29:56;15.55;;;12.30;;
7737;SDS011;29398;45.328;5.558;2022-11-25T03:30:57;16.13;;;11.80;;
7737;SDS011;29398;45.328;5.558;2022-11-25T03:31:59;17.88;;;13.10;;
7737;SDS011;29398;45.328;5.558;2022-11-25T03:33:00;15.05;;;11.93;;
7737;SDS011;29398;45.328;5.558;2022-11-25T03:34:02;14.23;;;11.68;;
7737;SDS011;29398;45.328;5.558;2022-11-25T03:35:05;14.60;;;12.88;;
7737;SDS011;29398;45.328;5.558;2022-11-25T03:36:07;15.27;;;12.68;;
7737;SDS011;29398;45.328;5.558;2022-11-25T03:37:09;16.38;;;12.88;;
7737;SDS011;29398;45.328;5.558;2022-11-25T03:38:11;17.30;;;13.68;;
7737;SDS011;29398;45.328;5.558;2022-11-25T03:39:14;16.83;;;13.43;;
7737;SDS011;29398;45.328;5.558;2022-11-25T03:40:16;17.92;;;13.45;;
7737;SDS011;29398;45.328;5.558;2022-11-25T03:41:19;17.23;;;13.68;;
7737;SDS011;29398;45.328;5.558;2022-11-25T03:42:20;16.85;;;13.35;;
7737;SDS011;29398;45.328;5.558;2022-11-25T03:43:23;16.40;;;11.95;;
7737;SDS011;29398;45.328;5.558;2022-11-25T03:44:25;17.23;;;13.02;;
7737;SDS011;29398;45.328;5.558;2022-11-25T03:45:27;16.50;;;12.43;;
7737;SDS011;29398;45.328;5.558;2022-11-25T03:46:32;15.63;;;12.98;;
7737;SDS011;29398;45.328;5.558;2022-11-25T03:47:35;15.40;;;13.38;;
7737;SDS011;29398;45.328;5.558;2022-11-25T03:48:37;14.02;;;12.57;;
7737;SDS011;29398;45.328;5.558;2022-11-25T03:49:39;18.02;;;14.23;;
7737;SDS011;29398;45.328;5.558;2022-11-25T03:50:41;14.05;;;12.43;;
7737;SDS011;29398;45.328;5.558;2022-11-25T03:51:43;17.90;;;12.50;;
7737;SDS011;29398;45.328;5.558;2022-11-25T03:52:46;17.40;;;12.70;;
7737;SDS011;29398;45.328;5.558;2022-11-25T03:53:48;16.08;;;12.65;;
7737;SDS011;29398;45.328;5.558;2022-11-25T03:54:49;17.83;;;13.13;;
7737;SDS011;29398;45.328;5.558;2022-11-25T03:55:56;16.50;;;13.35;;
7737;SDS011;29398;45.328;5.558;2022-11-25T03:56:58;16.60;;;12.73;;
7737;SDS011;29398;45.328;5.558;2022-11-25T03:58:02;17.33;;;13.23;;
7737;SDS011;29398;45.328;5.558;2022-11-25T03:59:04;18.10;;;12.93;;
7737;SDS011;29398;45.328;5.558;2022-11-25T04:00:07;19.20;;;14.50;;
7737;SDS011;29398;45.328;5.558;2022-11-25T04:01:29;16.20;;;13.05;;
7737;SDS011;29398;45.328;5.558;2022-11-25T04:02:31;16.42;;;13.07;;
7737;SDS011;29398;45.328;5.558;2022-11-25T04:03:32;16.80;;;12.15;;
7737;SDS011;29398;45.328;5.558;2022-11-25T04:04:34;14.52;;;12.80;;
7737;SDS011;29398;45.328;5.558;2022-11-25T04:05:35;15.88;;;12.80;;
7737;SDS011;29398;45.328;5.558;2022-11-25T04:06:40;18.60;;;12.55;;
7737;SDS011;29398;45.328;5.558;2022-11-25T04:07:42;17.48;;;13.35;;
7737;SDS011;29398;45.328;5.558;2022-11-25T04:08:44;16.75;;;13.23;;
7737;SDS011;29398;45.328;5.558;2022-11-25T04:09:46;17.98;;;12.95;;
7737;SDS011;29398;45.328;5.558;2022-11-25T04:10:52;18.10;;;12.43;;
7737;SDS011;29398;45.328;5.558;2022-11-25T04:11:57;13.25;;;11.38;;
7737;SDS011;29398;45.328;5.558;2022-11-25T04:13:31;15.85;;;11.80;;
7737;SDS011;29398;45.328;5.558;2022-11-25T04:14:34;14.48;;;11.30;;
7737;SDS011;29398;45.328;5.558;2022-11-25T04:15:35;14.07;;;10.32;;
7737;SDS011;29398;45.328;5.558;2022-11-25T04:16:38;16.63;;;12.00;;
7737;SDS011;29398;45.328;5.558;2022-11-25T04:17:40;13.07;;;10.75;;
7737;SDS011;29398;45.328;5.558;2022-11-25T04:18:42;15.10;;;10.73;;
7737;SDS011;29398;45.328;5.558;2022-11-25T04:19:43;14.63;;;10.90;;
7737;SDS011;29398;45.328;5.558;2022-11-25T04:20:46;16.48;;;10.70;;
7737;SDS011;29398;45.328;5.558;2022-11-25T04:21:47;12.85;;;10.55;;
7737;SDS011;29398;45.328;5.558;2022-11-25T04:22:49;15.30;;;11.02;;
7737;SDS011;29398;45.328;5.558;2022-11-25T04:23:52;14.15;;;11.15;;
7737;SDS011;29398;45.328;5.558;2022-11-25T04:24:54;12.60;;;10.57;;
7737;SDS011;29398;45.328;5.558;2022-11-25T04:25:59;14.80;;;10.93;;
7737;SDS011;29398;45.328;5.558;2022-11-25T04:27:13;12.60;;;9.98;;
7737;SDS011;29398;45.328;5.558;2022-11-25T04:28:14;13.20;;;10.65;;
7737;SDS011;29398;45.328;5.558;2022-11-25T04:29:17;13.65;;;9.98;;
7737;SDS011;29398;45.328;5.558;2022-11-25T04:30:20;14.25;;;10.00;;
7737;SDS011;29398;45.328;5.558;2022-11-25T04:31:21;13.35;;;9.70;;
7737;SDS011;29398;45.328;5.558;2022-11-25T04:32:23;14.25;;;9.98;;
7737;SDS011;29398;45.328;5.558;2022-11-25T04:33:25;13.88;;;10.38;;
7737;SDS011;29398;45.328;5.558;2022-11-25T04:34:26;12.25;;;10.48;;
7737;SDS011;29398;45.328;5.558;2022-11-25T04:35:29;13.07;;;10.48;;
7737;SDS011;29398;45.328;5.558;2022-11-25T04:36:30;14.55;;;10.98;;
7737;SDS011;29398;45.328;5.558;2022-11-25T04:37:33;13.93;;;10.52;;
7737;SDS011;29398;45.328;5.558;2022-11-25T04:38:34;12.43;;;9.93;;
7737;SDS011;29398;45.328;5.558;2022-11-25T04:39:38;15.13;;;10.10;;
7737;SDS011;29398;45.328;5.558;2022-11-25T04:40:45;13.45;;;9.98;;
7737;SDS011;29398;45.328;5.558;2022-11-25T04:41:50;11.68;;;9.80;;
7737;SDS011;29398;45.328;5.558;2022-11-25T04:43:12;14.00;;;9.48;;
7737;SDS011;29398;45.328;5.558;2022-11-25T04:44:23;12.70;;;9.48;;
7737;SDS011;29398;45.328;5.558;2022-11-25T04:45:26;11.85;;;10.15;;
7737;SDS011;29398;45.328;5.558;2022-11-25T04:46:32;11.57;;;9.85;;
7737;SDS011;29398;45.328;5.558;2022-11-25T04:47:37;12.10;;;9.68;;
7737;SDS011;29398;45.328;5.558;2022-11-25T04:48:40;12.52;;;9.75;;
7737;SDS011;29398;45.328;5.558;2022-11-25T04:49:42;11.82;;;9.50;;
7737;SDS011;29398;45.328;5.558;2022-11-25T04:50:44;16.48;;;11.25;;
7737;SDS011;29398;45.328;5.558;2022-11-25T04:51:47;13.50;;;10.07;;
7737;SDS011;29398;45.328;5.558;2022-11-25T04:52:49;17.52;;;10.45;;
7737;SDS011;29398;45.328;5.558;2022-11-25T04:53:50;12.73;;;10.07;;
7737;SDS011;29398;45.328;5.558;2022-11-25T04:54:52;14.57;;;10.55;;
7737;SDS011;29398;45.328;5.558;2022-11-25T04:55:53;13.93;;;10.25;;
7737;SDS011;29398;45.328;5.558;2022-11-25T04:56:55;13.10;;;10.35;;
7737;SDS011;29398;45.328;5.558;2022-11-25T04:57:59;13.60;;;11.02;;
7737;SDS011;29398;45.328;5.558;2022-11-25T04:59:03;14.45;;;10.52;;
7737;SDS011;29398;45.328;5.558;2022-11-25T05:00:22;15.93;;;11.13;;
7737;SDS011;29398;45.328;5.558;2022-11-25T05:01:25;12.90;;;10.25;;
7737;SDS011;29398;45.328;5.558;2022-11-25T05:02:33;14.20;;;9.90;;
7737;SDS011;29398;45.328;5.558;2022-11-25T05:03:44;12.00;;;9.88;;
7737;SDS011;29398;45.328;5.558;2022-11-25T05:04:49;13.18;;;10.23;;
7737;SDS011;29398;45.328;5.558;2022-11-25T05:05:52;14.20;;;10.70;;
7737;SDS011;29398;45.328;5.558;2022-11-25T05:06:55;13.52;;;10.27;;
7737;SDS011;29398;45.328;5.558;2022-11-25T05:07:58;12.85;;;10.18;;
7737;SDS011;29398;45.328;5.558;2022-11-25T05:08:59;14.35;;;10.88;;
7737;SDS011;29398;45.328;5.558;2022-11-25T05:10:02;13.65;;;10.18;;
7737;SDS011;29398;45.328;5.558;2022-11-25T05:11:08;13.05;;;10.38;;
7737;SDS011;29398;45.328;5.558;2022-11-25T05:12:10;16.17;;;10.85;;
7737;SDS011;29398;45.328;5.558;2022-11-25T05:13:13;14.07;;;10.57;;
7737;SDS011;29398;45.328;5.558;2022-11-25T05:14:14;12.68;;;10.10;;
7737;SDS011;29398;45.328;5.558;2022-11-25T05:15:16;15.38;;;10.40;;
7737;SDS011;29398;45.328;5.558;2022-11-25T05:16:20;12.80;;;10.38;;
7737;SDS011;29398;45.328;5.558;2022-11-25T05:17:24;14.63;;;10.13;;
7737;SDS011;29398;45.328;5.558;2022-11-25T05:18:28;15.07;;;10.40;;
7737;SDS011;29398;45.328;5.558;2022-11-25T05:19:30;11.95;;;9.35;;
7737;SDS011;29398;45.328;5.558;2022-11-25T05:20:32;13.43;;;10.48;;
7737;SDS011;29398;45.328;5.558;2022-11-25T05:21:34;13.32;;;9.65;;
7737;SDS011;29398;45.328;5.558;2022-11-25T05:22:35;12.88;;;9.57;;
7737;SDS011;29398;45.328;5.558;2022-11-25T05:23:39;14.00;;;9.93;;
7737;SDS011;29398;45.328;5.558;2022-11-25T05:24:41;13.20;;;8.85;;
7737;SDS011;29398;45.328;5.558;2022-11-25T05:25:43;14.63;;;8.80;;
7737;SDS011;29398;45.328;5.558;2022-11-25T05:26:59;12.60;;;9.15;;
7737;SDS011;29398;45.328;5.558;2022-11-25T05:28:01;9.50;;;7.53;;
7737;SDS011;29398;45.328;5.558;2022-11-25T05:29:02;12.07;;;8.35;;
7737;SDS011;29398;45.328;5.558;2022-11-25T05:30:06;11.13;;;8.00;;
7737;SDS011;29398;45.328;5.558;2022-11-25T05:31:08;14.57;;;8.13;;
7737;SDS011;29398;45.328;5.558;2022-11-25T05:32:11;11.68;;;7.80;;
7737;SDS011;29398;45.328;5.558;2022-11-25T05:33:14;11.10;;;7.78;;
7737;SDS011;29398;45.328;5.558;2022-11-25T05:34:19;12.50;;;7.50;;
7737;SDS011;29398;45.328;5.558;2022-11-25T05:35:21;11.40;;;6.88;;
7737;SDS011;29398;45.328;5.558;2022-11-25T05:36:23;9.65;;;6.95;;
7737;SDS011;29398;45.328;5.558;2022-11-25T05:37:24;9.10;;;6.20;;
7737;SDS011;29398;45.328;5.558;2022-11-25T05:38:33;8.75;;;6.47;;
7737;SDS011;29398;45.328;5.558;2022-11-25T05:39:34;9.45;;;6.72;;
7737;SDS011;29398;45.328;5.558;2022-11-25T05:41:14;9.27;;;7.10;;
7737;SDS011;29398;45.328;5.558;2022-11-25T05:42:19;9.00;;;6.57;;
7737;SDS011;29398;45.328;5.558;2022-11-25T05:43:22;10.23;;;7.53;;
7737;SDS011;29398;45.328;5.558;2022-11-25T05:44:24;11.30;;;7.57;;
7737;SDS011;29398;45.328;5.558;2022-11-25T05:45:27;12.88;;;7.30;;
7737;SDS011;29398;45.328;5.558;2022-11-25T05:46:28;10.23;;;7.95;;
7737;SDS011;29398;45.328;5.558;2022-11-25T05:47:30;11.68;;;8.43;;
7737;SDS011;29398;45.328;5.558;2022-11-25T05:48:33;12.80;;;8.75;;
7737;SDS011;29398;45.328;5.558;2022-11-25T05:49:36;9.90;;;8.07;;
7737;SDS011;29398;45.328;5.558;2022-11-25T05:50:38;10.95;;;8.20;;
7737;SDS011;29398;45.328;5.558;2022-11-25T05:51:52;12.70;;;8.88;;
7737;SDS011;29398;45.328;5.558;2022-11-25T05:52:56;11.68;;;8.23;;
7737;SDS011;29398;45.328;5.558;2022-11-25T05:53:58;11.65;;;8.38;;
7737;SDS011;29398;45.328;5.558;2022-11-25T05:55:03;12.90;;;8.50;;
7737;SDS011;29398;45.328;5.558;2022-11-25T05:56:06;10.15;;;8.05;;
7737;SDS011;29398;45.328;5.558;2022-11-25T05:57:41;12.32;;;8.57;;
7737;SDS011;29398;45.328;5.558;2022-11-25T05:58:43;11.20;;;8.70;;
7737;SDS011;29398;45.328;5.558;2022-11-25T05:59:46;11.80;;;8.48;;
7737;SDS011;29398;45.328;5.558;2022-11-25T06:00:54;14.45;;;9.00;;
7737;SDS011;29398;45.328;5.558;2022-11-25T06:01:57;10.15;;;8.00;;
7737;SDS011;29398;45.328;5.558;2022-11-25T06:02:58;11.43;;;7.80;;
7737;SDS011;29398;45.328;5.558;2022-11-25T06:04:02;8.82;;;6.18;;
7737;SDS011;29398;45.328;5.558;2022-11-25T06:05:04;8.02;;;6.57;;
7737;SDS011;29398;45.328;5.558;2022-11-25T06:06:07;10.63;;;6.03;;
7737;SDS011;29398;45.328;5.558;2022-11-25T06:07:08;7.05;;;6.07;;
7737;SDS011;29398;45.328;5.558;2022-11-25T06:08:12;9.60;;;6.40;;
7737;SDS011;29398;45.328;5.558;2022-11-25T06:09:13;8.82;;;6.18;;
7737;SDS011;29398;45.328;5.558;2022-11-25T06:10:15;10.05;;;6.47;;
7737;SDS011;29398;45.328;5.558;2022-11-25T06:11:17;9.20;;;7.78;;
7737;SDS011;29398;45.328;5.558;2022-11-25T06:12:19;11.15;;;7.35;;
7737;SDS011;29398;45.328;5.558;2022-11-25T06:13:22;9.60;;;8.60;;
7737;SDS011;29398;45.328;5.558;2022-11-25T06:14:25;12.18;;;9.88;;
7737;SDS011;29398;45.328;5.558;2022-11-25T06:15:26;13.60;;;9.55;;
7737;SDS011;29398;45.328;5.558;2022-11-25T06:16:30;11.90;;;9.60;;
7737;SDS011;29398;45.328;5.558;2022-11-25T06:17:44;12.52;;;9.82;;
7737;SDS011;29398;45.328;5.558;2022-11-25T06:18:53;11.95;;;9.82;;
7737;SDS011;29398;45.328;5.558;2022-11-25T06:19:56;11.70;;;9.82;;
7737;SDS011;29398;45.328;5.558;2022-11-25T06:20:58;10.60;;;9.50;;
7737;SDS011;29398;45.328;5.558;2022-11-25T06:22:01;12.38;;;10.45;;
7737;SDS011;29398;45.328;5.558;2022-11-25T06:23:03;13.50;;;10.98;;
7737;SDS011;29398;45.328;5.558;2022-11-25T06:24:08;13.50;;;10.95;;